createdAt,value
2016-09-04T00:00:13.744Z,0
2016-09-04T00:01:12.915Z,0
2016-09-04T00:02:13.702Z,0
2016-09-04T00:03:12.964Z,0
2016-09-04T00:04:14.506Z,0
2016-09-04T00:05:14.443Z,0
2016-09-04T00:06:13.794Z,0
2016-09-04T00:07:13.765Z,0
2016-09-04T00:08:14.546Z,0
2016-09-04T00:09:13.818Z,0
2016-09-04T00:10:13.850Z,0
2016-09-04T00:11:15.285Z,0
2016-09-04T00:12:14.584Z,0
2016-09-04T00:13:13.286Z,0
2016-09-04T00:14:14.636Z,0
2016-09-04T00:15:13.957Z,0
2016-09-04T00:16:15.472Z,0
2016-09-04T00:17:14.026Z,0
2016-09-04T00:18:14.017Z,0
2016-09-04T00:19:14.794Z,0
2016-09-04T00:20:14.784Z,0
2016-09-04T00:21:14.173Z,0
2016-09-04T00:22:14.126Z,0
2016-09-04T00:23:14.152Z,0
2016-09-04T00:24:13.524Z,0
2016-09-04T00:25:14.206Z,0
2016-09-04T00:26:15.004Z,0
2016-09-04T00:27:14.238Z,0
2016-09-04T00:28:14.395Z,0
2016-09-04T00:29:14.985Z,0
2016-09-04T00:30:15.137Z,0
2016-09-04T00:31:15.764Z,0
2016-09-04T00:32:13.742Z,0
2016-09-04T00:33:15.117Z,0
2016-09-04T00:34:15.128Z,0
2016-09-04T00:35:13.832Z,0
2016-09-04T00:36:13.754Z,0
2016-09-04T00:37:15.205Z,0
2016-09-04T00:38:14.583Z,0
2016-09-04T00:39:15.954Z,0
2016-09-04T00:40:15.292Z,0
2016-09-04T00:41:16.125Z,0
2016-09-04T00:42:15.301Z,0
2016-09-04T00:43:14.015Z,0
2016-09-04T00:44:13.333Z,0
2016-09-04T00:45:14.695Z,0
2016-09-04T00:46:14.084Z,0
2016-09-04T00:47:15.460Z,0
2016-09-04T00:48:14.828Z,0
2016-09-04T00:49:16.195Z,0
2016-09-04T00:50:14.830Z,0
2016-09-04T00:51:15.621Z,0
2016-09-04T00:52:13.436Z,0
2016-09-04T00:53:14.162Z,0
2016-09-04T00:54:14.184Z,0
2016-09-04T00:55:14.250Z,0
2016-09-04T00:56:14.953Z,0
2016-09-04T00:57:15.671Z,0
2016-09-04T00:58:15.714Z,0
2016-09-04T00:59:16.591Z,0
2016-09-04T01:00:15.768Z,0
2016-09-04T01:01:15.854Z,0
2016-09-04T01:02:16.527Z,0
2016-09-04T01:03:13.690Z,0
2016-09-04T01:04:16.561Z,0
2016-09-04T01:05:15.181Z,0
2016-09-04T01:06:15.219Z,0
2016-09-04T01:07:16.784Z,0
2016-09-04T01:08:15.352Z,0
2016-09-04T01:09:15.284Z,0
2016-09-04T01:10:15.353Z,0
2016-09-04T01:11:15.335Z,0
2016-09-04T01:12:16.103Z,0
2016-09-04T01:13:15.354Z,0
2016-09-04T01:14:16.153Z,0
2016-09-04T01:15:15.457Z,0
2016-09-04T01:16:14.713Z,0
2016-09-04T01:17:16.170Z,0
2016-09-04T01:18:15.594Z,0
2016-09-04T01:19:16.197Z,0
2016-09-04T01:20:16.973Z,0
2016-09-04T01:21:16.261Z,0
2016-09-04T01:22:16.296Z,0
2016-09-04T01:23:16.456Z,0
2016-09-04T01:24:15.602Z,0
2016-09-04T01:25:15.655Z,0
2016-09-04T01:26:15.688Z,0
2016-09-04T01:27:15.678Z,0
2016-09-04T01:28:16.440Z,0
2016-09-04T01:29:16.585Z,0
2016-09-04T01:30:16.569Z,0
2016-09-04T01:31:16.492Z,0
2016-09-04T01:32:16.661Z,0
2016-09-04T01:33:16.537Z,0
2016-09-04T01:34:15.854Z,0
2016-09-04T01:35:16.592Z,0
2016-09-04T01:36:16.719Z,0
2016-09-04T01:37:15.922Z,0
2016-09-04T01:38:14.559Z,0
2016-09-04T01:39:15.994Z,0
2016-09-04T01:40:17.410Z,0
2016-09-04T01:41:16.741Z,0
2016-09-04T01:42:16.056Z,0
2016-09-04T01:43:16.173Z,0
2016-09-04T01:44:16.121Z,0
2016-09-04T01:45:16.228Z,0
2016-09-04T01:46:16.133Z,0
2016-09-04T01:47:16.221Z,0
2016-09-04T01:48:16.898Z,0
2016-09-04T01:49:16.219Z,0
2016-09-04T01:50:15.645Z,0
2016-09-04T01:51:16.333Z,0
2016-09-04T01:52:16.297Z,0
2016-09-04T01:53:15.680Z,0
2016-09-04T01:54:16.335Z,0
2016-09-04T01:55:17.076Z,0
2016-09-04T01:56:15.751Z,0
2016-09-04T01:57:16.420Z,0
2016-09-04T01:58:15.730Z,0
2016-09-04T01:59:17.169Z,0
2016-09-04T02:00:15.754Z,0
2016-09-04T02:01:16.653Z,0
2016-09-04T02:02:16.522Z,0
2016-09-04T02:03:17.955Z,0
2016-09-04T02:04:17.282Z,0
2016-09-04T02:05:17.391Z,0
2016-09-04T02:06:18.075Z,0
2016-09-04T02:07:15.959Z,0
2016-09-04T02:08:15.393Z,0
2016-09-04T02:09:17.430Z,0
2016-09-04T02:10:16.014Z,0
2016-09-04T02:11:16.036Z,0
2016-09-04T02:12:17.492Z,0
2016-09-04T02:13:16.766Z,0
2016-09-04T02:14:15.400Z,0
2016-09-04T02:15:17.701Z,0
2016-09-04T02:16:16.151Z,0
2016-09-04T02:17:16.259Z,0
2016-09-04T02:18:16.351Z,0
2016-09-04T02:19:16.199Z,0
2016-09-04T02:20:16.958Z,0
2016-09-04T02:21:18.363Z,0
2016-09-04T02:22:18.400Z,0
2016-09-04T02:23:17.723Z,0
2016-09-04T02:24:17.031Z,0
2016-09-04T02:25:17.171Z,0
2016-09-04T02:26:16.399Z,0
2016-09-04T02:27:16.519Z,0
2016-09-04T02:28:17.842Z,0
2016-09-04T02:29:17.312Z,0
2016-09-04T02:30:16.529Z,0
2016-09-04T02:31:16.629Z,0
2016-09-04T02:32:17.236Z,0
2016-09-04T02:33:18.032Z,0
2016-09-04T02:34:17.291Z,0
2016-09-04T02:35:18.765Z,0
2016-09-04T02:36:18.042Z,0
2016-09-04T02:37:18.890Z,0
2016-09-04T02:38:18.078Z,0
2016-09-04T02:39:16.683Z,0
2016-09-04T02:40:17.463Z,0
2016-09-04T02:41:17.451Z,0
2016-09-04T02:42:16.791Z,0
2016-09-04T02:43:18.205Z,0
2016-09-04T02:44:17.520Z,0
2016-09-04T02:45:17.666Z,0
2016-09-04T02:46:17.570Z,0
2016-09-04T02:47:17.573Z,0
2016-09-04T02:48:17.610Z,0
2016-09-04T02:49:16.992Z,0
2016-09-04T02:50:18.419Z,0
2016-09-04T02:51:17.691Z,0
2016-09-04T02:52:18.396Z,0
2016-09-04T02:53:16.386Z,0
2016-09-04T02:54:18.464Z,0
2016-09-04T02:55:17.780Z,0
2016-09-04T02:56:17.799Z,0
2016-09-04T02:57:17.906Z,0
2016-09-04T02:58:18.549Z,0
2016-09-04T02:59:18.567Z,0
2016-09-04T03:00:18.660Z,0
2016-09-04T03:01:19.337Z,0
2016-09-04T03:02:18.059Z,0
2016-09-04T03:03:16.560Z,0
2016-09-04T03:04:18.784Z,0
2016-09-04T03:05:18.021Z,0
2016-09-04T03:06:18.847Z,0
2016-09-04T03:07:18.071Z,0
2016-09-04T03:08:18.844Z,0
2016-09-04T03:09:18.311Z,0
2016-09-04T03:10:18.150Z,0
2016-09-04T03:11:16.747Z,0
2016-09-04T03:12:18.869Z,0
2016-09-04T03:13:18.277Z,0
2016-09-04T03:14:18.917Z,0
2016-09-04T03:15:18.946Z,0
2016-09-04T03:16:18.342Z,0
2016-09-04T03:17:18.289Z,0
2016-09-04T03:18:19.029Z,0
2016-09-04T03:19:19.749Z,0
2016-09-04T03:20:18.349Z,0
2016-09-04T03:21:19.089Z,0
2016-09-04T03:22:18.440Z,0
2016-09-04T03:23:18.440Z,0
2016-09-04T03:24:18.523Z,0
2016-09-04T03:25:18.487Z,0
2016-09-04T03:26:18.556Z,0
2016-09-04T03:27:17.807Z,0
2016-09-04T03:28:18.561Z,0
2016-09-04T03:29:18.571Z,0
2016-09-04T03:30:18.729Z,0
2016-09-04T03:31:19.318Z,0
2016-09-04T03:32:18.647Z,0
2016-09-04T03:33:19.369Z,0
2016-09-04T03:34:19.430Z,0
2016-09-04T03:35:18.688Z,0
2016-09-04T03:36:18.735Z,0
2016-09-04T03:37:19.467Z,0
2016-09-04T03:38:20.221Z,0
2016-09-04T03:39:19.631Z,0
2016-09-04T03:40:18.100Z,0
2016-09-04T03:41:18.901Z,0
2016-09-04T03:42:19.581Z,0
2016-09-04T03:43:18.903Z,0
2016-09-04T03:44:19.622Z,0
2016-09-04T03:45:17.633Z,0
2016-09-04T03:46:19.681Z,0
2016-09-04T03:47:18.295Z,0
2016-09-04T03:48:19.012Z,0
2016-09-04T03:49:19.754Z,0
2016-09-04T03:50:19.752Z,0
2016-09-04T03:51:18.385Z,0
2016-09-04T03:52:19.874Z,0
2016-09-04T03:53:18.492Z,0
2016-09-04T03:54:20.583Z,0
2016-09-04T03:55:18.480Z,0
2016-09-04T03:56:20.633Z,0
2016-09-04T03:57:19.923Z,0
2016-09-04T03:58:19.321Z,0
2016-09-04T03:59:19.269Z,0
2016-09-04T04:00:19.311Z,0
2016-09-04T04:01:18.655Z,0
2016-09-04T04:02:20.054Z,0
2016-09-04T04:03:19.394Z,0
2016-09-04T04:04:20.820Z,0
2016-09-04T04:05:20.923Z,0
2016-09-04T04:06:18.804Z,0
2016-09-04T04:07:20.954Z,0
2016-09-04T04:08:19.471Z,0
2016-09-04T04:09:19.573Z,0
2016-09-04T04:10:18.934Z,0
2016-09-04T04:11:20.308Z,0
2016-09-04T04:12:18.944Z,0
2016-09-04T04:13:19.607Z,0
2016-09-04T04:14:19.701Z,0
2016-09-04T04:15:21.047Z,0
2016-09-04T04:16:19.061Z,0
2016-09-04T04:17:19.702Z,0
2016-09-04T04:18:19.022Z,0
2016-09-04T04:19:19.834Z,0
2016-09-04T04:20:18.355Z,0
2016-09-04T04:21:19.804Z,0
2016-09-04T04:22:20.814Z,0
2016-09-04T04:23:21.247Z,0
2016-09-04T04:24:21.305Z,0
2016-09-04T04:25:20.589Z,0
2016-09-04T04:26:19.191Z,0
2016-09-04T04:27:19.994Z,0
2016-09-04T04:28:19.301Z,0
2016-09-04T04:29:21.507Z,0
2016-09-04T04:30:20.004Z,0
2016-09-04T04:31:20.144Z,0
2016-09-04T04:32:19.324Z,0
2016-09-04T04:33:20.883Z,0
2016-09-04T04:34:19.474Z,0
2016-09-04T04:35:20.110Z,0
2016-09-04T04:36:20.341Z,0
2016-09-04T04:37:20.213Z,0
2016-09-04T04:38:20.883Z,0
2016-09-04T04:39:20.214Z,0
2016-09-04T04:40:21.648Z,0
2016-09-04T04:41:20.282Z,0
2016-09-04T04:42:20.288Z,0
2016-09-04T04:43:20.323Z,0
2016-09-04T04:44:21.735Z,0
2016-09-04T04:45:21.215Z,0
2016-09-04T04:46:18.957Z,0
2016-09-04T04:47:21.092Z,0
2016-09-04T04:48:20.430Z,0
2016-09-04T04:49:21.143Z,0
2016-09-04T04:50:21.890Z,5
2016-09-04T04:51:19.082Z,5
2016-09-04T04:52:21.219Z,5
2016-09-04T04:53:19.123Z,5
2016-09-04T04:54:20.653Z,5
2016-09-04T04:55:21.313Z,10
2016-09-04T04:56:19.960Z,10
2016-09-04T04:57:22.109Z,10
2016-09-04T04:58:20.785Z,10
2016-09-04T04:59:22.204Z,15
2016-09-04T05:00:20.075Z,15
2016-09-04T05:01:20.723Z,20
2016-09-04T05:02:20.054Z,20
2016-09-04T05:03:20.764Z,15
2016-09-04T05:04:20.095Z,10
2016-09-04T05:05:20.135Z,10
2016-09-04T05:06:20.845Z,10
2016-09-04T05:07:21.561Z,15
2016-09-04T05:08:20.914Z,20
2016-09-04T05:09:19.671Z,20
2016-09-04T05:10:20.923Z,20
2016-09-04T05:11:20.411Z,20
2016-09-04T05:12:21.701Z,20
2016-09-04T05:13:19.696Z,25
2016-09-04T05:14:21.035Z,30
2016-09-04T05:15:20.354Z,30
2016-09-04T05:16:21.077Z,30
2016-09-04T05:17:21.877Z,30
2016-09-04T05:18:21.835Z,30
2016-09-04T05:19:21.192Z,35
2016-09-04T05:20:22.605Z,35
2016-09-04T05:21:21.194Z,40
2016-09-04T05:22:22.830Z,45
2016-09-04T05:23:21.955Z,45
2016-09-04T05:24:22.064Z,50
2016-09-04T05:25:20.605Z,50
2016-09-04T05:26:21.435Z,45
2016-09-04T05:27:21.355Z,45
2016-09-04T05:28:21.364Z,40
2016-09-04T05:29:21.533Z,40
2016-09-04T05:30:21.465Z,40
2016-09-04T05:31:22.430Z,40
2016-09-04T05:32:21.462Z,40
2016-09-04T05:33:20.790Z,40
2016-09-04T05:34:21.511Z,40
2016-09-04T05:35:21.665Z,40
2016-09-04T05:36:21.561Z,45
2016-09-04T05:37:21.676Z,45
2016-09-04T05:38:21.605Z,45
2016-09-04T05:39:21.615Z,45
2016-09-04T05:40:22.342Z,45
2016-09-04T05:41:20.956Z,45
2016-09-04T05:42:21.760Z,45
2016-09-04T05:43:22.438Z,45
2016-09-04T05:44:21.746Z,40
2016-09-04T05:45:21.760Z,35
2016-09-04T05:46:21.214Z,35
2016-09-04T05:47:21.116Z,30
2016-09-04T05:48:21.813Z,35
2016-09-04T05:49:21.155Z,35
2016-09-04T05:50:21.963Z,35
2016-09-04T05:51:21.898Z,35
2016-09-04T05:52:21.930Z,35
2016-09-04T05:53:22.091Z,35
2016-09-04T05:54:21.270Z,35
2016-09-04T05:55:22.043Z,40
2016-09-04T05:56:21.404Z,40
2016-09-04T05:57:21.366Z,45
2016-09-04T05:58:22.084Z,50
2016-09-04T05:59:22.791Z,55
2016-09-04T06:00:23.527Z,60
2016-09-04T06:01:22.196Z,65
2016-09-04T06:02:21.549Z,70
2016-09-04T06:03:22.925Z,75
2016-09-04T06:04:22.906Z,85
2016-09-04T06:05:22.942Z,90
2016-09-04T06:06:21.551Z,90
2016-09-04T06:07:23.015Z,90
2016-09-04T06:08:21.645Z,90
2016-09-04T06:09:22.333Z,80
2016-09-04T06:10:23.214Z,75
2016-09-04T06:11:23.084Z,80
2016-09-04T06:12:20.994Z,85
2016-09-04T06:13:23.154Z,90
2016-09-04T06:14:23.967Z,85
2016-09-04T06:15:22.480Z,95
2016-09-04T06:16:23.956Z,95
2016-09-04T06:17:21.932Z,90
2016-09-04T06:18:22.555Z,80
2016-09-04T06:19:22.566Z,100
2016-09-04T06:20:23.302Z,120
2016-09-04T06:21:24.034Z,130
2016-09-04T06:22:22.647Z,150
2016-09-04T06:23:24.094Z,130
2016-09-04T06:24:22.695Z,130
2016-09-04T06:25:23.453Z,135
2016-09-04T06:26:24.346Z,165
2016-09-04T06:27:23.038Z,170
2016-09-04T06:28:22.119Z,165
2016-09-04T06:29:22.961Z,150
2016-09-04T06:30:23.694Z,130
2016-09-04T06:31:23.660Z,130
2016-09-04T06:32:23.589Z,125
2016-09-04T06:33:22.966Z,130
2016-09-04T06:34:24.587Z,140
2016-09-04T06:35:23.655Z,155
2016-09-04T06:36:21.581Z,195
2016-09-04T06:37:23.077Z,205
2016-09-04T06:38:23.885Z,215
2016-09-04T06:39:23.805Z,220
2016-09-04T06:40:23.170Z,225
2016-09-04T06:41:23.839Z,230
2016-09-04T06:42:22.410Z,240
2016-09-04T06:43:23.225Z,240
2016-09-04T06:44:22.486Z,245
2016-09-04T06:45:24.626Z,245
2016-09-04T06:46:23.940Z,240
2016-09-04T06:47:24.751Z,240
2016-09-04T06:48:24.825Z,240
2016-09-04T06:49:24.771Z,230
2016-09-04T06:50:23.406Z,235
2016-09-04T06:51:23.346Z,235
2016-09-04T06:52:24.141Z,230
2016-09-04T06:53:22.691Z,230
2016-09-04T06:54:23.423Z,225
2016-09-04T06:55:24.864Z,245
2016-09-04T06:56:23.517Z,255
2016-09-04T06:57:23.504Z,245
2016-09-04T06:58:24.925Z,250
2016-09-04T06:59:23.550Z,270
2016-09-04T07:00:24.277Z,275
2016-09-04T07:01:24.296Z,300
2016-09-04T07:02:24.353Z,325
2016-09-04T07:03:24.476Z,340
2016-09-04T07:04:24.395Z,335
2016-09-04T07:05:23.966Z,360
2016-09-04T07:06:23.718Z,355
2016-09-04T07:07:23.044Z,320
2016-09-04T07:08:24.496Z,310
2016-09-04T07:09:24.669Z,330
2016-09-04T07:10:24.554Z,340
2016-09-04T07:11:24.556Z,345
2016-09-04T07:12:25.303Z,340
2016-09-04T07:13:23.934Z,335
2016-09-04T07:14:23.973Z,310
2016-09-04T07:15:23.383Z,275
2016-09-04T07:16:23.261Z,255
2016-09-04T07:17:24.713Z,240
2016-09-04T07:18:24.147Z,240
2016-09-04T07:19:24.081Z,245
2016-09-04T07:20:23.374Z,260
2016-09-04T07:21:24.814Z,275
2016-09-04T07:22:24.125Z,290
2016-09-04T07:23:25.589Z,300
2016-09-04T07:24:24.909Z,320
2016-09-04T07:25:24.917Z,330
2016-09-04T07:26:23.556Z,315
2016-09-04T07:27:24.337Z,310
2016-09-04T07:28:25.761Z,335
2016-09-04T07:29:24.355Z,350
2016-09-04T07:30:24.323Z,350
2016-09-04T07:31:24.395Z,350
2016-09-04T07:32:25.147Z,345
2016-09-04T07:33:25.873Z,335
2016-09-04T07:34:25.165Z,330
2016-09-04T07:35:25.183Z,325
2016-09-04T07:36:23.821Z,315
2016-09-04T07:37:24.535Z,310
2016-09-04T07:38:24.567Z,295
2016-09-04T07:39:24.592Z,275
2016-09-04T07:40:26.254Z,255
2016-09-04T07:41:25.343Z,235
2016-09-04T07:42:25.497Z,225
2016-09-04T07:43:26.130Z,200
2016-09-04T07:44:26.187Z,195
2016-09-04T07:45:25.477Z,180
2016-09-04T07:46:25.475Z,190
2016-09-04T07:47:25.541Z,190
2016-09-04T07:48:25.534Z,190
2016-09-04T07:49:26.287Z,215
2016-09-04T07:50:24.905Z,235
2016-09-04T07:51:25.632Z,245
2016-09-04T07:52:25.636Z,260
2016-09-04T07:53:25.665Z,265
2016-09-04T07:54:25.686Z,290
2016-09-04T07:55:25.766Z,310
2016-09-04T07:56:25.726Z,335
2016-09-04T07:57:25.055Z,360
2016-09-04T07:58:25.828Z,355
2016-09-04T07:59:25.096Z,355
2016-09-04T08:00:24.450Z,350
2016-09-04T08:01:26.584Z,355
2016-09-04T08:02:25.928Z,350
2016-09-04T08:03:25.254Z,350
2016-09-04T08:04:26.686Z,355
2016-09-04T08:05:25.974Z,365
2016-09-04T08:06:24.574Z,380
2016-09-04T08:07:25.344Z,395
2016-09-04T08:08:26.044Z,400
2016-09-04T08:09:26.394Z,415
2016-09-04T08:10:26.272Z,430
2016-09-04T08:11:25.595Z,450
2016-09-04T08:12:26.859Z,480
2016-09-04T08:13:25.503Z,495
2016-09-04T08:14:26.925Z,510
2016-09-04T08:15:25.522Z,530
2016-09-04T08:16:26.961Z,525
2016-09-04T08:17:27.156Z,520
2016-09-04T08:18:26.413Z,535
2016-09-04T08:19:26.471Z,520
2016-09-04T08:20:25.759Z,500
2016-09-04T08:21:26.392Z,470
2016-09-04T08:22:25.046Z,480
2016-09-04T08:23:26.462Z,480
2016-09-04T08:24:25.073Z,475
2016-09-04T08:25:25.114Z,485
2016-09-04T08:26:27.290Z,490
2016-09-04T08:27:27.275Z,495
2016-09-04T08:28:27.300Z,495
2016-09-04T08:29:26.696Z,510
2016-09-04T08:30:25.924Z,530
2016-09-04T08:31:27.632Z,545
2016-09-04T08:32:26.713Z,510
2016-09-04T08:33:26.032Z,465
2016-09-04T08:34:27.463Z,500
2016-09-04T08:35:27.503Z,430
2016-09-04T08:36:26.823Z,375
2016-09-04T08:37:26.845Z,375
2016-09-04T08:38:27.562Z,400
2016-09-04T08:39:27.596Z,430
2016-09-04T08:40:26.910Z,415
2016-09-04T08:41:27.142Z,380
2016-09-04T08:42:27.884Z,345
2016-09-04T08:43:27.166Z,310
2016-09-04T08:44:26.461Z,285
2016-09-04T08:45:26.756Z,255
2016-09-04T08:46:27.263Z,235
2016-09-04T08:47:27.158Z,215
2016-09-04T08:48:27.253Z,195
2016-09-04T08:49:25.893Z,185
2016-09-04T08:50:26.534Z,170
2016-09-04T08:51:25.923Z,160
2016-09-04T08:52:27.278Z,150
2016-09-04T08:53:28.017Z,140
2016-09-04T08:54:27.302Z,135
2016-09-04T08:55:26.688Z,130
2016-09-04T08:56:26.639Z,120
2016-09-04T08:57:26.801Z,105
2016-09-04T08:58:27.463Z,100
2016-09-04T08:59:28.183Z,85
2016-09-04T09:00:28.151Z,80
2016-09-04T09:01:27.578Z,70
2016-09-04T09:02:26.866Z,65
2016-09-04T09:03:27.546Z,55
2016-09-04T09:04:26.886Z,50
2016-09-04T09:05:27.633Z,45
2016-09-04T09:06:26.932Z,45
2016-09-04T09:07:28.370Z,40
2016-09-04T09:08:26.988Z,40
2016-09-04T09:09:27.732Z,40
2016-09-04T09:10:28.431Z,40
2016-09-04T09:11:27.728Z,40
2016-09-04T09:12:27.781Z,40
2016-09-04T09:13:28.763Z,40
2016-09-04T09:14:27.132Z,45
2016-09-04T09:15:27.121Z,50
2016-09-04T09:16:27.167Z,50
2016-09-04T09:17:27.184Z,50
2016-09-04T09:18:27.242Z,50
2016-09-04T09:19:28.819Z,50
2016-09-04T09:20:27.290Z,55
2016-09-04T09:21:28.760Z,60
2016-09-04T09:22:27.320Z,65
2016-09-04T09:23:28.066Z,65
2016-09-04T09:24:28.818Z,70
2016-09-04T09:25:28.810Z,70
2016-09-04T09:26:28.199Z,65
2016-09-04T09:27:28.859Z,65
2016-09-04T09:28:28.226Z,70
2016-09-04T09:29:28.223Z,80
2016-09-04T09:30:29.001Z,85
2016-09-04T09:31:28.323Z,80
2016-09-04T09:32:29.060Z,80
2016-09-04T09:33:29.079Z,75
2016-09-04T09:34:28.337Z,70
2016-09-04T09:35:28.469Z,70
2016-09-04T09:36:27.703Z,75
2016-09-04T09:37:28.542Z,85
2016-09-04T09:38:28.440Z,100
2016-09-04T09:39:28.438Z,130
2016-09-04T09:40:28.481Z,135
2016-09-04T09:41:27.820Z,145
2016-09-04T09:42:28.543Z,155
2016-09-04T09:43:29.261Z,165
2016-09-04T09:44:28.551Z,170
2016-09-04T09:45:29.309Z,175
2016-09-04T09:46:29.607Z,185
2016-09-04T09:47:27.962Z,200
2016-09-04T09:48:29.742Z,235
2016-09-04T09:49:27.272Z,240
2016-09-04T09:50:27.320Z,245
2016-09-04T09:51:29.669Z,200
2016-09-04T09:52:28.779Z,165
2016-09-04T09:53:29.654Z,170
2016-09-04T09:54:27.420Z,185
2016-09-04T09:55:29.699Z,160
2016-09-04T09:56:29.701Z,175
2016-09-04T09:57:29.927Z,220
2016-09-04T09:58:29.698Z,250
2016-09-04T09:59:28.422Z,240
2016-09-04T10:00:29.054Z,275
2016-09-04T10:01:29.016Z,340
2016-09-04T10:02:29.751Z,300
2016-09-04T10:03:29.110Z,250
2016-09-04T10:04:29.062Z,240
2016-09-04T10:05:29.840Z,215
2016-09-04T10:06:29.131Z,215
2016-09-04T10:07:29.882Z,255
2016-09-04T10:08:29.901Z,280
2016-09-04T10:09:29.941Z,310
2016-09-04T10:10:29.311Z,325
2016-09-04T10:11:29.946Z,305
2016-09-04T10:12:29.391Z,275
2016-09-04T10:13:29.318Z,240
2016-09-04T10:14:29.342Z,200
2016-09-04T10:15:29.371Z,165
2016-09-04T10:16:28.671Z,130
2016-09-04T10:17:29.433Z,95
2016-09-04T10:18:29.453Z,70
2016-09-04T10:19:29.479Z,45
2016-09-04T10:20:29.518Z,30
2016-09-04T10:21:30.231Z,20
2016-09-04T10:22:30.271Z,20
2016-09-04T10:23:30.292Z,20
2016-09-04T10:24:29.100Z,20
2016-09-04T10:25:29.619Z,20
2016-09-04T10:26:29.931Z,20
2016-09-04T10:27:30.405Z,20
2016-09-04T10:28:29.179Z,15
2016-09-04T10:29:30.433Z,10
2016-09-04T10:30:30.492Z,10
2016-09-04T10:31:29.783Z,15
2016-09-04T10:32:29.935Z,15
2016-09-04T10:33:29.887Z,20
2016-09-04T10:34:30.614Z,25
2016-09-04T10:35:30.591Z,30
2016-09-04T10:36:30.663Z,35
2016-09-04T10:37:30.659Z,35
2016-09-04T10:38:29.250Z,45
2016-09-04T10:39:30.697Z,55
2016-09-04T10:40:30.000Z,65
2016-09-04T10:41:30.746Z,85
2016-09-04T10:42:29.343Z,100
2016-09-04T10:43:31.011Z,120
2016-09-04T10:44:29.400Z,135
2016-09-04T10:45:29.483Z,155
2016-09-04T10:46:28.890Z,165
2016-09-04T10:47:31.301Z,190
2016-09-04T10:48:30.937Z,210
2016-09-04T10:49:30.983Z,230
2016-09-04T10:50:30.255Z,245
2016-09-04T10:51:28.870Z,255
2016-09-04T10:52:29.701Z,255
2016-09-04T10:53:30.350Z,255
2016-09-04T10:54:30.482Z,240
2016-09-04T10:55:31.097Z,275
2016-09-04T10:56:30.444Z,335
2016-09-04T10:57:30.442Z,390
2016-09-04T10:58:31.227Z,370
2016-09-04T10:59:31.213Z,305
2016-09-04T11:00:31.222Z,250
2016-09-04T11:01:31.299Z,170
2016-09-04T11:02:31.273Z,155
2016-09-04T11:03:29.882Z,215
2016-09-04T11:04:29.460Z,235
2016-09-04T11:05:30.822Z,190
2016-09-04T11:06:31.362Z,275
2016-09-04T11:07:30.898Z,280
2016-09-04T11:08:31.435Z,210
2016-09-04T11:09:31.463Z,330
2016-09-04T11:10:31.483Z,375
2016-09-04T11:11:31.504Z,420
2016-09-04T11:12:31.545Z,490
2016-09-04T11:13:31.554Z,445
2016-09-04T11:14:31.594Z,505
2016-09-04T11:15:30.209Z,515
2016-09-04T11:16:31.010Z,500
2016-09-04T11:17:31.646Z,440
2016-09-04T11:18:29.562Z,420
2016-09-04T11:19:30.301Z,305
2016-09-04T11:20:31.757Z,380
2016-09-04T11:21:31.787Z,480
2016-09-04T11:22:31.073Z,450
2016-09-04T11:23:31.103Z,305
2016-09-04T11:24:30.438Z,225
2016-09-04T11:25:31.193Z,260
2016-09-04T11:26:31.185Z,415
2016-09-04T11:27:31.220Z,415
2016-09-04T11:28:31.254Z,445
2016-09-04T11:29:31.989Z,430
2016-09-04T11:30:31.362Z,415
2016-09-04T11:31:30.616Z,420
2016-09-04T11:32:32.077Z,435
2016-09-04T11:33:32.084Z,440
2016-09-04T11:34:32.114Z,445
2016-09-04T11:35:31.425Z,455
2016-09-04T11:36:32.284Z,460
2016-09-04T11:37:31.466Z,465
2016-09-04T11:38:31.554Z,475
2016-09-04T11:39:32.252Z,480
2016-09-04T11:40:31.641Z,495
2016-09-04T11:41:31.636Z,495
2016-09-04T11:42:30.383Z,500
2016-09-04T11:43:31.662Z,505
2016-09-04T11:44:32.392Z,505
2016-09-04T11:45:32.413Z,540
2016-09-04T11:46:31.731Z,565
2016-09-04T11:47:31.060Z,555
2016-09-04T11:48:31.163Z,485
2016-09-04T11:49:32.553Z,465
2016-09-04T11:50:31.183Z,475
2016-09-04T11:51:32.636Z,490
2016-09-04T11:52:32.596Z,485
2016-09-04T11:53:32.789Z,460
2016-09-04T11:54:32.656Z,465
2016-09-04T11:55:32.696Z,505
2016-09-04T11:56:32.004Z,470
2016-09-04T11:57:32.019Z,545
2016-09-04T11:58:32.782Z,560
2016-09-04T11:59:32.797Z,555
2016-09-04T12:00:32.864Z,555
2016-09-04T12:01:32.865Z,650
2016-09-04T12:02:32.177Z,590
2016-09-04T12:03:30.791Z,540
2016-09-04T12:04:31.515Z,550
2016-09-04T12:05:32.428Z,555
2016-09-04T12:06:32.984Z,585
2016-09-04T12:07:32.335Z,550
2016-09-04T12:08:33.039Z,580
2016-09-04T12:09:33.086Z,630
2016-09-04T12:10:32.408Z,505
2016-09-04T12:11:32.435Z,510
2016-09-04T12:12:32.441Z,465
2016-09-04T12:13:31.780Z,540
2016-09-04T12:14:32.694Z,445
2016-09-04T12:15:33.404Z,450
2016-09-04T12:16:33.559Z,475
2016-09-04T12:17:33.416Z,435
2016-09-04T12:18:31.965Z,510
2016-09-04T12:19:33.415Z,500
2016-09-04T12:20:31.312Z,450
2016-09-04T12:21:33.424Z,350
2016-09-04T12:22:32.745Z,360
2016-09-04T12:23:33.462Z,350
2016-09-04T12:24:32.822Z,415
2016-09-04T12:25:32.841Z,345
2016-09-04T12:26:32.139Z,325
2016-09-04T12:27:33.045Z,350
2016-09-04T12:28:32.208Z,365
2016-09-04T12:29:32.935Z,350
2016-09-04T12:30:33.039Z,360
2016-09-04T12:31:33.723Z,355
2016-09-04T12:32:32.314Z,350
2016-09-04T12:33:33.246Z,345
2016-09-04T12:34:33.247Z,335
2016-09-04T12:35:32.396Z,320
2016-09-04T12:36:33.252Z,280
2016-09-04T12:37:33.873Z,300
2016-09-04T12:38:31.770Z,335
2016-09-04T12:39:33.920Z,360
2016-09-04T12:40:33.948Z,355
2016-09-04T12:41:33.284Z,380
2016-09-04T12:42:33.316Z,370
2016-09-04T12:43:32.701Z,340
2016-09-04T12:44:34.090Z,270
2016-09-04T12:45:32.994Z,285
2016-09-04T12:46:33.416Z,375
2016-09-04T12:47:32.793Z,345
2016-09-04T12:48:34.181Z,255
2016-09-04T12:49:33.543Z,280
2016-09-04T12:50:33.635Z,330
2016-09-04T12:51:33.001Z,310
2016-09-04T12:52:32.955Z,340
2016-09-04T12:53:33.612Z,330
2016-09-04T12:54:34.323Z,245
2016-09-04T12:55:33.664Z,195
2016-09-04T12:56:34.424Z,195
2016-09-04T12:57:33.726Z,180
2016-09-04T12:58:33.046Z,165
2016-09-04T12:59:32.370Z,140
2016-09-04T13:00:33.802Z,125
2016-09-04T13:01:34.526Z,100
2016-09-04T13:02:33.908Z,90
2016-09-04T13:03:33.904Z,85
2016-09-04T13:04:33.926Z,85
2016-09-04T13:05:34.653Z,85
2016-09-04T13:06:33.961Z,80
2016-09-04T13:07:34.694Z,70
2016-09-04T13:08:34.014Z,85
2016-09-04T13:09:34.763Z,95
2016-09-04T13:10:34.795Z,100
2016-09-04T13:11:34.829Z,90
2016-09-04T13:12:34.135Z,80
2016-09-04T13:13:33.464Z,70
2016-09-04T13:14:34.897Z,65
2016-09-04T13:15:34.225Z,55
2016-09-04T13:16:34.213Z,40
2016-09-04T13:17:34.262Z,35
2016-09-04T13:18:34.993Z,25
2016-09-04T13:19:33.605Z,20
2016-09-04T13:20:33.617Z,15
2016-09-04T13:21:34.368Z,10
2016-09-04T13:22:33.003Z,10
2016-09-04T13:23:34.417Z,25
2016-09-04T13:24:35.205Z,35
2016-09-04T13:25:34.473Z,40
2016-09-04T13:26:35.225Z,50
2016-09-04T13:27:34.684Z,50
2016-09-04T13:28:35.314Z,55
2016-09-04T13:29:33.145Z,65
2016-09-04T13:30:35.352Z,75
2016-09-04T13:31:34.724Z,85
2016-09-04T13:32:34.635Z,90
2016-09-04T13:33:34.023Z,105
2016-09-04T13:34:35.410Z,110
2016-09-04T13:35:34.024Z,120
2016-09-04T13:36:34.770Z,125
2016-09-04T13:37:34.794Z,120
2016-09-04T13:38:34.191Z,115
2016-09-04T13:39:34.122Z,115
2016-09-04T13:40:34.252Z,135
2016-09-04T13:41:34.162Z,160
2016-09-04T13:42:35.830Z,185
2016-09-04T13:43:34.225Z,220
2016-09-04T13:44:34.224Z,245
2016-09-04T13:45:34.992Z,240
2016-09-04T13:46:35.772Z,210
2016-09-04T13:47:35.026Z,185
2016-09-04T13:48:34.432Z,175
2016-09-04T13:49:35.053Z,175
2016-09-04T13:50:35.907Z,185
2016-09-04T13:51:33.721Z,205
2016-09-04T13:52:35.853Z,230
2016-09-04T13:53:34.563Z,225
2016-09-04T13:54:35.233Z,210
2016-09-04T13:55:35.252Z,185
2016-09-04T13:56:34.548Z,160
2016-09-04T13:57:33.855Z,145
2016-09-04T13:58:35.992Z,135
2016-09-04T13:59:36.022Z,140
2016-09-04T14:00:34.646Z,155
2016-09-04T14:01:34.651Z,195
2016-09-04T14:02:35.751Z,230
2016-09-04T14:03:35.423Z,250
2016-09-04T14:04:34.857Z,245
2016-09-04T14:05:36.190Z,260
2016-09-04T14:06:36.190Z,280
2016-09-04T14:07:36.240Z,320
2016-09-04T14:08:35.595Z,330
2016-09-04T14:09:34.881Z,330
2016-09-04T14:10:35.622Z,340
2016-09-04T14:11:34.222Z,365
2016-09-04T14:12:36.502Z,405